createdAt,value
2022-11-23T00:04:54.477Z,53.15
2022-11-23T00:09:56.391Z,52.58
2022-11-23T00:14:58.804Z,52.33
2022-11-23T00:20:00.780Z,52.75
2022-11-23T00:25:03.049Z,53.03
2022-11-23T00:30:05.698Z,55.00
2022-11-23T00:35:08.015Z,54.65
2022-11-23T00:40:10.468Z,51.72
2022-11-23T00:45:12.604Z,49.78
2022-11-23T00:50:14.694Z,49.05
2022-11-23T00:55:17.747Z,44.17
2022-11-23T01:00:19.856Z,45.15
2022-11-23T01:05:22.280Z,43.97
2022-11-23T01:10:24.455Z,42.53
2022-11-23T01:15:27.806Z,41.13
2022-11-23T01:20:29.745Z,39.65
2022-11-23T01:25:31.793Z,42.10
2022-11-23T01:30:34.512Z,40.08
2022-11-23T01:35:36.440Z,38.63
2022-11-23T01:40:43.005Z,39.65
2022-11-23T01:45:56.890Z,40.28
2022-11-23T01:51:00.812Z,36.38
2022-11-23T01:56:06.203Z,33.50
2022-11-23T02:01:08.678Z,34.28
2022-11-23T02:06:16.399Z,35.13
2022-11-23T02:11:18.418Z,36.35
2022-11-23T02:16:20.355Z,36.88
2022-11-23T02:21:23.315Z,35.03
2022-11-23T02:26:29.802Z,34.35
2022-11-23T02:31:32.435Z,34.60
2022-11-23T02:36:39.659Z,34.55
2022-11-23T02:41:48.267Z,30.98
2022-11-23T02:46:53.429Z,29.75
2022-11-23T02:51:55.458Z,31.08
2022-11-23T02:57:00.467Z,31.80
2022-11-23T03:02:04.607Z,29.17
2022-11-23T03:07:06.949Z,28.73
2022-11-23T03:12:10.099Z,29.00
2022-11-23T03:17:12.271Z,32.20
2022-11-23T03:22:16.738Z,31.52
2022-11-23T03:27:19.322Z,32.53
2022-11-23T03:32:22.044Z,34.22
2022-11-23T03:37:27.931Z,31.60
2022-11-23T03:42:29.978Z,30.92
2022-11-23T03:47:32.674Z,30.38
2022-11-23T03:52:34.671Z,31.55
2022-11-23T03:57:36.673Z,31.40
2022-11-23T04:02:41.818Z,29.95
2022-11-23T04:08:04.263Z,27.13
2022-11-23T04:13:06.878Z,27.98
2022-11-23T04:18:09.028Z,29.70
2022-11-23T04:23:13.825Z,30.83
2022-11-23T04:33:22.341Z,25.50
2022-11-23T04:38:25.415Z,25.87
2022-11-23T04:43:28.714Z,26.17
2022-11-23T04:48:32.046Z,25.35
2022-11-23T04:53:34.288Z,24.40
2022-11-23T04:58:36.661Z,24.38
2022-11-23T05:03:43.128Z,26.23
2022-11-23T05:08:45.327Z,26.25
2022-11-23T05:14:08.341Z,24.27
2022-11-23T05:19:10.516Z,25.70
2022-11-23T05:24:12.577Z,23.85
2022-11-23T05:29:21.200Z,23.70
2022-11-23T05:34:23.697Z,23.88
2022-11-23T05:39:26.495Z,25.17
2022-11-23T05:44:29.059Z,25.25
2022-11-23T05:49:31.594Z,24.75
2022-11-23T05:54:34.100Z,28.17
2022-11-23T05:59:46.371Z,26.58
2022-11-23T06:04:58.074Z,26.95
2022-11-23T06:10:11.648Z,29.27
2022-11-23T06:15:16.680Z,26.65
2022-11-23T06:20:20.427Z,25.55
2022-11-23T06:25:30.749Z,24.50
2022-11-23T06:30:49.755Z,25.83
2022-11-23T06:35:53.842Z,25.80
2022-11-23T06:41:05.303Z,24.05
2022-11-23T06:46:07.863Z,23.42
2022-11-23T06:51:15.236Z,25.90
2022-11-23T06:56:19.377Z,24.42
2022-11-23T07:01:21.720Z,24.95
2022-11-23T07:06:34.036Z,25.92
2022-11-23T07:11:41.593Z,23.95
2022-11-23T07:16:43.576Z,24.33
2022-11-23T07:21:46.164Z,24.50
2022-11-23T07:26:48.248Z,25.13
2022-11-23T07:31:50.773Z,24.38
2022-11-23T07:37:01.675Z,22.60
2022-11-23T07:42:30.979Z,21.33
2022-11-23T07:47:28.761Z,22.25
2022-11-23T07:52:30.938Z,23.20
2022-11-23T07:57:32.967Z,26.35
2022-11-23T08:02:35.026Z,40.83
2022-11-23T08:07:37.743Z,29.63
2022-11-23T08:12:40.159Z,27.30
2022-11-23T08:17:42.053Z,24.38
2022-11-23T08:22:43.897Z,21.58
2022-11-23T08:27:45.890Z,20.88
2022-11-23T08:32:47.953Z,19.50
2022-11-23T08:37:49.924Z,23.20
2022-11-23T08:42:51.867Z,23.58
2022-11-23T08:47:54.195Z,22.85
2022-11-23T08:52:57.778Z,21.80
2022-11-23T08:58:00.000Z,23.33
2022-11-23T09:03:02.260Z,23.92
2022-11-23T09:08:04.359Z,24.35
2022-11-23T09:13:06.371Z,23.08
2022-11-23T09:18:09.231Z,24.83
2022-11-23T09:23:14.354Z,22.43
2022-11-23T09:28:19.632Z,24.65
2022-11-23T09:33:23.283Z,23.17
2022-11-23T09:38:51.393Z,21.50
2022-11-23T09:44:02.129Z,22.40
2022-11-23T09:49:27.872Z,21.08
2022-11-23T09:54:37.494Z,23.27
2022-11-23T09:59:50.166Z,22.15
2022-11-23T10:04:53.809Z,23.33
2022-11-23T10:10:40.814Z,23.15
2022-11-23T10:15:54.242Z,24.45
2022-11-23T10:21:06.420Z,24.65
2022-11-23T10:26:20.232Z,24.42
2022-11-23T10:31:26.065Z,23.08
2022-11-23T10:36:28.329Z,23.60
2022-11-23T10:41:31.219Z,23.92
2022-11-23T10:46:37.255Z,24.77
2022-11-23T10:51:39.876Z,24.15
2022-11-23T10:56:53.967Z,24.42
2022-11-23T11:02:16.481Z,24.08
2022-11-23T11:07:30.694Z,25.35
2022-11-23T11:12:35.725Z,27.23
2022-11-23T11:17:39.543Z,26.63
2022-11-23T11:22:47.441Z,27.65
2022-11-23T11:27:53.420Z,27.83
2022-11-23T11:33:36.029Z,28.27
2022-11-23T11:38:40.545Z,27.48
2022-11-23T11:43:53.200Z,26.45
2022-11-23T11:48:59.672Z,27.77
2022-11-23T11:54:29.358Z,27.58
2022-11-23T11:59:47.291Z,25.00
2022-11-23T12:04:58.195Z,25.00
2022-11-23T12:10:21.107Z,26.10
2022-11-23T12:15:49.307Z,33.55
2022-11-23T12:21:18.145Z,30.23
2022-11-23T12:26:30.655Z,32.70
2022-11-23T12:31:52.120Z,30.52
2022-11-23T12:37:29.301Z,31.00
2022-11-23T12:42:53.755Z,31.00
2022-11-23T12:47:58.541Z,29.67
2022-11-23T12:53:18.692Z,30.05
2022-11-23T12:58:27.856Z,28.95
2022-11-23T13:03:56.312Z,31.40
2022-11-23T13:09:14.016Z,34.92
2022-11-23T13:14:37.832Z,34.47
2022-11-23T13:19:42.888Z,35.47
2022-11-23T13:25:09.890Z,33.58
2022-11-23T13:30:27.312Z,33.25
2022-11-23T13:35:31.224Z,32.10
2022-11-23T13:40:35.004Z,33.33
2022-11-23T13:45:37.213Z,31.42
2022-11-23T13:50:51.519Z,32.22
2022-11-23T13:55:56.704Z,30.20
2022-11-23T14:00:59.592Z,32.60
2022-11-23T14:06:04.468Z,35.03
2022-11-23T14:11:13.127Z,41.03
2022-11-23T14:16:22.499Z,35.38
2022-11-23T14:22:04.987Z,33.75
2022-11-23T14:27:49.193Z,35.08
2022-11-23T14:38:13.843Z,38.30
2022-11-23T14:43:21.109Z,37.83
2022-11-23T14:48:27.947Z,40.92
2022-11-23T14:53:33.151Z,44.00
2022-11-23T14:58:37.255Z,43.28
2022-11-23T15:03:50.365Z,40.47
2022-11-23T15:09:21.515Z,41.45
2022-11-23T15:14:27.332Z,43.05
2022-11-23T15:19:30.071Z,42.65
2022-11-23T15:24:32.260Z,39.50
2022-11-23T15:29:39.380Z,42.83
2022-11-23T15:34:41.966Z,41.95
2022-11-23T15:39:44.561Z,39.15
2022-11-23T15:44:50.944Z,40.63
2022-11-23T15:50:02.920Z,38.97
2022-11-23T15:55:14.487Z,40.80
2022-11-23T16:00:25.721Z,41.63
2022-11-23T16:05:27.967Z,45.55
2022-11-23T16:10:32.565Z,42.65
2022-11-23T16:15:37.603Z,43.65
2022-11-23T16:20:58.600Z,40.63
2022-11-23T16:26:05.931Z,40.38
2022-11-23T16:31:43.150Z,39.78
2022-11-23T16:36:45.578Z,37.65
2022-11-23T16:41:47.637Z,39.05
2022-11-23T16:46:49.735Z,51.25
2022-11-23T16:51:56.966Z,44.85
2022-11-23T16:57:00.298Z,40.95
2022-11-23T17:02:02.316Z,39.90
2022-11-23T17:07:04.288Z,42.47
2022-11-23T17:12:13.464Z,43.00
2022-11-23T17:17:22.079Z,44.15
2022-11-23T17:22:23.948Z,42.35
2022-11-23T17:27:25.984Z,46.10
2022-11-23T17:32:28.329Z,45.30
2022-11-23T17:37:30.412Z,44.95
2022-11-23T17:42:32.313Z,42.85
2022-11-23T17:47:34.608Z,41.75
2022-11-23T17:52:37.100Z,40.67
2022-11-23T17:57:39.028Z,49.58
2022-11-23T18:02:40.937Z,44.85
2022-11-23T18:07:49.418Z,43.88
2022-11-23T18:12:54.459Z,43.92
2022-11-23T18:18:01.534Z,37.63
2022-11-23T18:23:06.399Z,37.10
2022-11-23T18:28:08.288Z,40.45
2022-11-23T18:33:10.236Z,41.40
2022-11-23T18:38:12.187Z,50.67
2022-11-23T18:43:14.651Z,36.03
2022-11-23T18:48:16.588Z,42.60
2022-11-23T18:53:18.954Z,42.13
2022-11-23T18:58:20.981Z,43.40
2022-11-23T19:03:23.115Z,43.65
2022-11-23T19:08:25.179Z,50.00
2022-11-23T19:13:27.140Z,45.95
2022-11-23T19:18:29.003Z,46.05
2022-11-23T19:23:31.045Z,51.35
2022-11-23T19:28:33.399Z,53.58
2022-11-23T19:33:35.391Z,50.13
2022-11-23T19:38:42.067Z,48.13
2022-11-23T19:43:45.468Z,56.13
2022-11-23T19:48:48.091Z,53.05
2022-11-23T19:53:51.118Z,57.00
2022-11-23T19:59:02.260Z,57.05
2022-11-23T20:04:09.667Z,46.33
2022-11-23T20:09:17.028Z,52.63
2022-11-23T20:14:19.942Z,52.75
2022-11-23T20:19:21.819Z,54.93
2022-11-23T20:24:23.716Z,56.30
2022-11-23T20:29:25.801Z,60.78
2022-11-23T20:34:27.736Z,56.35
2022-11-23T20:39:29.641Z,58.10
2022-11-23T20:44:34.060Z,56.05
2022-11-23T20:49:36.363Z,57.63
2022-11-23T20:54:38.422Z,56.55
2022-11-23T20:59:41.011Z,49.40
2022-11-23T21:04:42.907Z,46.83
2022-11-23T21:09:44.912Z,46.92
2022-11-23T21:14:46.826Z,48.75
2022-11-23T21:19:48.812Z,42.40
2022-11-23T21:24:50.923Z,42.13
2022-11-23T21:29:53.301Z,39.45
2022-11-23T21:34:55.949Z,40.10
2022-11-23T21:39:57.945Z,32.20
2022-11-23T21:44:59.917Z,39.40
2022-11-23T21:50:01.854Z,39.75
2022-11-23T21:55:04.308Z,39.53
2022-11-23T22:00:06.905Z,40.92
2022-11-23T22:05:14.066Z,41.72
2022-11-23T22:10:16.331Z,45.05
2022-11-23T22:15:18.268Z,47.28
2022-11-23T22:20:20.212Z,52.78
2022-11-23T22:25:22.226Z,48.33
2022-11-23T22:30:24.187Z,47.08
2022-11-23T22:35:26.087Z,54.25
2022-11-23T22:40:38.776Z,51.42
2022-11-23T22:45:40.713Z,47.78
2022-11-23T22:50:43.994Z,47.00
2022-11-23T22:55:46.135Z,45.42
2022-11-23T23:00:49.401Z,46.25
2022-11-23T23:05:55.359Z,48.63
2022-11-23T23:11:03.758Z,46.78
2022-11-23T23:16:08.000Z,48.83
2022-11-23T23:21:15.033Z,47.90
2022-11-23T23:26:19.164Z,50.88
2022-11-23T23:31:21.512Z,49.47
2022-11-23T23:36:24.037Z,51.13
2022-11-23T23:41:25.937Z,48.05
2022-11-23T23:46:27.911Z,49.25
2022-11-23T23:51:30.032Z,48.63
2022-11-23T23:56:32.224Z,48.00
